Time;durP1;ratioP1;P1;durP2;ratioP2;P2;SDS_P1;SDS_P2;PMS_P1;PMS_P2;Temp;Humidity;BMP_temperature;BMP_pressure;BME280_temperature;BME280_humidity;BME280_pressure;Samples;Min_cycle;Max_cycle;Signal;HPM_P1;HPM_P2
2021/04/24 00:00:46;;;;;;;11.63;4.78;;;4.50;99.90;;;3.58;61.00;98260.31;5004534;28;20057;-66
2021/04/24 00:03:13;;;;;;;16.40;4.78;;;4.40;99.90;;;3.76;60.26;98255.09;5011182;28;20071;-65
2021/04/24 00:05:43;;;;;;;12.18;4.13;;;4.40;99.90;;;3.84;59.68;98255.06;5003050;28;20096;-66
2021/04/24 00:08:13;;;;;;;14.13;4.72;;;4.50;99.90;;;3.73;60.11;98259.38;5014230;28;20411;-66
2021/04/24 00:10:42;;;;;;;13.43;5.10;;;4.50;99.90;;;3.73;59.68;98255.09;5015788;28;20049;-66
2021/04/24 00:13:10;;;;;;;9.70;4.22;;;4.40;99.90;;;3.55;60.16;98256.03;5004942;28;20067;-66
2021/04/24 00:15:38;;;;;;;13.88;4.45;;;4.40;99.90;;;3.44;60.67;98260.34;5029417;28;20053;-66
2021/04/24 00:18:06;;;;;;;13.30;4.32;;;4.20;99.90;;;3.51;60.51;98256.91;5016624;28;20049;-65
2021/04/24 00:20:33;;;;;;;11.40;3.75;;;4.30;99.90;;;3.49;60.81;98260.31;5014408;28;20477;-65
2021/04/24 00:23:00;;;;;;;8.82;4.20;;;4.20;99.90;;;3.44;60.94;98259.47;5014395;28;20046;-65
2021/04/24 00:25:27;;;;;;;11.02;4.47;;;4.20;99.90;;;3.12;62.24;98265.56;5010702;28;20049;-65
2021/04/24 00:27:54;;;;;;;13.18;4.93;;;4.10;99.90;;;3.04;62.51;98255.31;5014575;28;20042;-65
2021/04/24 00:30:21;;;;;;;12.02;4.40;;;3.90;99.90;;;2.96;62.67;98262.16;4994412;28;20436;-66
2021/04/24 00:32:48;;;;;;;13.07;4.63;;;3.80;99.90;;;2.91;62.78;98253.63;5013042;28;20123;-65
2021/04/24 00:35:17;;;;;;;18.00;4.65;;;3.80;99.90;;;2.90;62.65;98257.91;5001576;28;20105;-66
2021/04/24 00:37:45;;;;;;;12.52;4.28;;;3.70;99.90;;;2.78;63.21;98254.47;5017419;28;20049;-66
2021/04/24 00:40:13;;;;;;;11.13;4.30;;;3.60;99.90;;;2.70;63.47;98250.22;5001600;28;20104;-66
2021/04/24 00:42:40;;;;;;;14.25;4.97;;;3.50;99.90;;;2.95;63.04;98254.47;5018410;28;20061;-66
2021/04/24 00:45:11;;;;;;;8.80;4.18;;;3.60;99.90;;;2.98;63.02;98247.63;5024896;28;20049;-65
2021/04/24 00:47:38;;;;;;;13.48;5.00;;;3.70;99.90;;;3.06;63.02;98247.63;5029096;28;20555;-66
2021/04/24 00:50:08;;;;;;;12.48;4.55;;;3.80;99.90;;;3.20;62.22;98251.00;5032484;28;20059;-66
2021/04/24 00:52:35;;;;;;;13.45;4.72;;;3.90;99.90;;;3.29;62.53;98247.56;5009984;28;20120;-66
2021/04/24 00:55:03;;;;;;;15.68;4.65;;;4.00;99.90;;;3.38;62.24;98246.69;5017595;28;20042;-65
2021/04/24 00:57:32;;;;;;;10.93;3.88;;;4.00;99.90;;;3.47;61.92;98241.53;4999773;28;20453;-65
2021/04/24 00:59:59;;;;;;;10.50;4.28;;;4.10;99.90;;;3.23;63.08;98243.28;4996002;28;20126;-67
2021/04/24 01:02:25;;;;;;;15.48;4.47;;;4.00;99.90;;;3.05;64.07;98243.34;4997523;28;20108;-66
2021/04/24 01:04:53;;;;;;;15.68;4.45;;;4.00;99.90;;;2.93;64.17;98239.09;5016347;28;20145;-67
2021/04/24 01:07:20;;;;;;;12.65;5.15;;;3.80;99.90;;;2.95;63.62;98239.09;4997995;28;20038;-67
2021/04/24 01:09:47;;;;;;;11.30;4.30;;;3.80;99.90;;;2.92;63.26;98237.41;4999907;28;20502;-65
2021/04/24 01:12:13;;;;;;;9.90;4.10;;;3.70;99.90;;;2.75;64.45;98233.97;5020121;28;20429;-65
2021/04/24 01:14:40;;;;;;;12.52;4.85;;;3.60;99.90;;;2.93;64.38;98231.41;5028022;28;20034;-65
2021/04/24 01:17:06;;;;;;;18.55;4.20;;;3.60;99.90;;;2.83;64.76;98229.69;5009906;28;20053;-65
2021/04/24 01:19:33;;;;;;;14.80;4.97;;;3.60;99.90;;;2.79;65.06;98223.72;5016535;28;20125;-65
2021/04/24 01:22:08;;;;;;;14.30;4.43;;;3.60;99.90;;;2.77;64.89;98222.03;5015499;28;20056;-66
2021/04/24 01:24:35;;;;;;;11.35;4.82;;;3.60;99.90;;;2.81;65.33;98224.59;5005201;28;20060;-66
2021/04/24 01:27:06;;;;;;;12.73;5.93;;;3.60;99.90;;;2.79;65.25;98223.72;5007122;28;20041;-66
2021/04/24 01:29:35;;;;;;;12.45;4.53;;;3.60;99.90;;;2.95;64.80;98218.59;5002962;28;20049;-65
2021/04/24 01:32:03;;;;;;;11.82;4.28;;;3.70;99.90;;;2.91;64.59;98222.84;5015562;28;20120;-66
2021/04/24 01:34:31;;;;;;;15.82;4.80;;;3.70;99.90;;;2.81;65.19;98221.16;5005963;28;20042;-66
2021/04/24 01:37:00;;;;;;;11.90;3.83;;;3.70;99.90;;;2.80;64.96;98222.84;5002719;28;20069;-66
2021/04/24 01:39:29;;;;;;;20.15;4.68;;;3.60;99.90;;;2.87;64.81;98226.28;4985888;28;20139;-67
2021/04/24 01:41:56;;;;;;;16.85;4.45;;;3.60;99.90;;;2.89;64.61;98220.28;5021249;28;20113;-66
2021/04/24 01:44:23;;;;;;;10.73;4.50;;;3.70;99.90;;;2.74;65.04;98225.44;5003515;28;20519;-66
2021/04/24 01:46:50;;;;;;;11.93;4.82;;;3.60;99.90;;;2.73;65.09;98216.03;5011823;28;20041;-66
2021/04/24 01:49:18;;;;;;;9.27;4.18;;;3.60;99.90;;;2.67;65.42;98211.78;5018989;28;20091;-66
2021/04/24 01:51:44;;;;;;;14.40;4.43;;;3.50;99.90;;;2.61;65.64;98208.38;4995266;28;20050;-66
2021/04/24 01:54:11;;;;;;;12.32;4.60;;;3.50;99.90;;;2.56;65.85;98210.94;5015773;28;20041;-67
2021/04/24 01:56:55;;;;;;;13.80;4.68;;;3.40;99.90;;;2.53;65.80;98205.78;5016198;28;20064;-66
2021/04/24 01:59:26;;;;;;;12.70;4.25;;;3.30;99.90;;;2.45;65.94;98213.50;5017143;28;20044;-66
2021/04/24 02:01:57;;;;;;;14.25;4.72;;;3.30;99.90;;;2.48;66.38;98207.50;5018285;28;20064;-66
2021/04/24 02:04:26;;;;;;;13.55;4.95;;;3.30;99.90;;;2.49;65.71;98204.09;5018706;28;20069;-66
2021/04/24 02:06:54;;;;;;;11.02;5.03;;;3.40;99.90;;;2.56;65.96;98203.25;4999040;28;20063;-66
2021/04/24 02:09:22;;;;;;;11.88;4.13;;;3.40;99.90;;;2.72;65.00;98196.41;5019993;28;20060;-66
2021/04/24 02:12:09;;;;;;;14.40;4.20;;;3.40;99.90;;;2.83;64.87;98201.47;5007116;28;20151;-66
2021/04/24 02:14:51;;;;;;;11.07;4.50;;;3.50;99.90;;;2.60;65.82;98206.66;5016311;28;20108;-65
2021/04/24 02:17:24;;;;;;;17.17;4.65;;;3.50;99.90;;;2.55;66.05;98205.81;5016054;28;20045;-66
2021/04/24 02:19:52;;;;;;;13.15;4.50;;;3.40;99.90;;;2.57;65.95;98197.25;5018764;28;20049;-66
2021/04/24 02:22:22;;;;;;;15.15;4.13;;;3.30;99.90;;;2.56;65.62;98198.13;5008827;28;20108;-66
2021/04/24 02:24:56;;;;;;;15.10;4.70;;;3.30;99.90;;;2.51;66.04;98203.25;5003189;28;20139;-66
2021/04/24 02:27:25;;;;;;;11.82;4.75;;;3.30;99.90;;;2.43;66.57;98198.97;5008646;28;20057;-66
2021/04/24 02:29:56;;;;;;;10.40;4.15;;;3.30;99.90;;;2.40;66.54;98204.09;5001881;28;20049;-65
2021/04/24 02:32:29;;;;;;;16.33;5.43;;;3.20;99.90;;;2.36;66.62;98195.56;5018419;28;20041;-66
2021/04/24 02:35:22;;;;;;;15.02;5.20;;;3.20;99.90;;;2.18;67.30;98205.78;5018088;28;20053;-66
2021/04/24 02:38:06;;;;;;;17.70;4.82;;;3.10;99.90;;;2.09;67.51;98206.63;4992214;28;20052;-65
2021/04/24 02:40:33;;;;;;;8.75;4.43;;;3.00;99.90;;;2.15;67.67;98206.66;5007224;28;20041;-67
2021/04/24 02:42:59;;;;;;;12.65;4.70;;;3.00;99.90;;;2.39;66.44;98204.94;5002364;28;20541;-65
2021/04/24 02:45:26;;;;;;;11.32;4.55;;;3.10;99.90;;;2.34;66.67;98193.84;5008848;28;20123;-66
2021/04/24 02:47:52;;;;;;;13.30;4.82;;;3.10;99.90;;;2.25;66.56;98192.97;4999260;28;20049;-66
2021/04/24 02:50:21;;;;;;;12.50;5.63;;;3.10;99.90;;;2.15;66.85;98200.69;5001198;28;20108;-65
2021/04/24 02:52:48;;;;;;;14.50;5.55;;;3.00;99.90;;;2.11;67.39;98199.81;5011583;28;20076;-66
2021/04/24 02:55:17;;;;;;;12.80;5.20;;;3.00;99.90;;;1.99;67.69;98203.22;4996537;28;20038;-66
2021/04/24 02:57:43;;;;;;;18.75;5.85;;;2.90;99.90;;;1.94;67.79;98198.91;5014674;28;20045;-65
2021/04/24 03:00:14;;;;;;;16.33;5.72;;;2.80;99.90;;;2.09;67.57;98207.47;5002708;28;20056;-65
2021/04/24 03:02:41;;;;;;;11.65;5.20;;;2.90;99.90;;;2.09;67.29;98198.94;5002088;28;20073;-66
2021/04/24 03:05:28;;;;;;;11.00;4.70;;;2.90;99.90;;;1.99;67.84;98205.78;5015820;28;20045;-66
2021/04/24 03:08:16;;;;;;;16.77;5.47;;;2.80;99.90;;;1.78;68.33;98204.03;5013870;28;20060;-66
2021/04/24 03:11:02;;;;;;;13.05;5.25;;;2.70;99.90;;;1.74;68.85;98211.69;5006638;28;20057;-66
2021/04/24 03:13:49;;;;;;;14.45;5.47;;;2.60;99.90;;;1.88;68.42;98210.88;5011715;28;21067;-66
2021/04/24 03:16:38;;;;;;;16.20;5.60;;;2.70;99.90;;;1.94;68.08;98210.03;5008236;28;20097;-65
2021/04/24 03:19:23;;;;;;;11.38;5.38;;;2.70;99.90;;;1.74;68.98;98206.59;5002801;28;20057;-65
2021/04/24 03:21:49;;;;;;;14.35;5.68;;;2.70;99.90;;;1.61;69.12;98211.66;5018909;28;20065;-65
2021/04/24 03:24:16;;;;;;;14.88;5.50;;;2.60;99.90;;;1.41;69.42;98210.72;5001675;28;20049;-65
2021/04/24 03:26:43;;;;;;;12.57;5.30;;;2.50;99.90;;;1.22;70.16;98213.19;5004145;28;20044;-65
2021/04/24 03:29:09;;;;;;;13.07;5.10;;;2.30;99.90;;;1.08;70.28;98211.44;5010693;28;20033;-65
2021/04/24 03:31:36;;;;;;;12.43;5.53;;;2.20;99.90;;;1.13;70.33;98213.16;5021970;28;20387;-66
2021/04/24 03:34:03;;;;;;;13.38;5.18;;;2.00;99.90;;;1.13;70.46;98214.88;5000516;28;20060;-65
2021/04/24 03:36:30;;;;;;;13.82;5.82;;;2.00;99.90;;;1.08;71.04;98217.41;5002930;28;20053;-66
2021/04/24 03:38:57;;;;;;;14.38;5.82;;;2.00;99.90;;;1.20;70.60;98214.03;5001865;28;20053;-65
2021/04/24 03:41:23;;;;;;;11.90;4.95;;;2.00;99.90;;;1.20;70.17;98214.88;4999011;28;20064;-66
2021/04/24 03:43:50;;;;;;;12.93;5.63;;;2.10;99.90;;;1.41;69.80;98213.28;5029285;28;20110;-66
2021/04/24 03:46:17;;;;;;;13.48;5.90;;;2.10;99.90;;;1.44;69.66;98218.41;5017070;28;20046;-65
2021/04/24 03:48:44;;;;;;;12.57;5.32;;;2.20;99.90;;;1.40;69.85;98217.53;5012403;28;20112;-66
2021/04/24 03:51:10;;;;;;;10.25;5.05;;;2.20;99.90;;;1.37;70.20;98216.66;5003791;28;20068;-67
2021/04/24 03:53:37;;;;;;;13.15;5.38;;;2.20;99.90;;;1.45;70.07;98212.44;5005991;28;20112;-66
2021/04/24 03:56:04;;;;;;;16.77;6.45;;;2.30;99.90;;;1.29;70.76;98226.03;5019149;28;20053;-66
2021/04/24 03:58:31;;;;;;;20.60;6.53;;;2.20;99.90;;;1.12;71.01;98225.91;5001432;28;20337;-65
2021/04/24 04:00:57;;;;;;;16.98;5.55;;;2.10;99.90;;;1.09;70.86;98223.34;5000034;28;20072;-66
2021/04/24 04:03:24;;;;;;;14.00;5.78;;;2.00;99.90;;;0.97;71.27;98227.56;5009914;28;20077;-66
2021/04/24 04:05:51;;;;;;;16.35;5.30;;;1.90;99.90;;;1.11;71.18;98224.22;5000647;28;20104;-66
2021/04/24 04:08:17;;;;;;;16.15;5.57;;;2.00;99.90;;;1.23;71.04;98217.47;5016363;28;20510;-68
2021/04/24 04:10:49;;;;;;;11.35;5.65;;;2.00;99.90;;;1.30;70.96;98220.03;5016288;28;20111;-66
2021/04/24 04:13:16;;;;;;;13.38;6.05;;;2.10;99.90;;;1.32;70.95;98231.13;4993446;28;20038;-66
2021/04/24 04:15:43;;;;;;;13.27;5.75;;;2.10;99.90;;;1.38;70.72;98232.03;5018813;28;20510;-66
2021/04/24 04:18:34;;;;;;;13.68;5.63;;;2.20;99.90;;;1.30;70.55;98231.16;5015122;28;20185;-66
2021/04/24 04:21:22;;;;;;;17.25;5.78;;;2.20;99.90;;;1.47;70.52;98228.66;5014465;28;20052;-66
2021/04/24 04:24:07;;;;;;;12.32;6.38;;;2.30;99.90;;;1.46;70.80;98230.38;5006109;28;20065;-66
2021/04/24 04:26:34;;;;;;;11.70;5.40;;;2.30;99.90;;;1.57;70.41;98227.81;5013250;28;20054;-66
2021/04/24 04:29:20;;;;;;;15.75;5.53;;;2.40;99.90;;;1.62;70.13;98231.28;5013025;28;20051;-66
2021/04/24 04:31:46;;;;;;;13.60;5.40;;;2.40;99.90;;;1.66;69.97;98235.53;5012534;28;20043;-66
2021/04/24 04:34:33;;;;;;;13.82;5.93;;;2.50;99.90;;;1.64;70.27;98241.50;5001307;28;20132;-65
2021/04/24 04:37:20;;;;;;;13.13;5.78;;;2.50;99.90;;;1.71;69.77;98230.47;5013053;28;20038;-66
2021/04/24 04:40:10;;;;;;;18.67;5.93;;;2.50;99.90;;;1.79;69.66;98240.72;5014174;28;20427;-65
2021/04/24 04:42:57;;;;;;;17.65;6.75;;;2.60;99.90;;;1.61;70.35;98244.91;5000819;28;20061;-66
2021/04/24 04:45:44;;;;;;;25.10;11.02;;;2.50;99.90;;;1.47;70.70;98246.56;5017447;28;20050;-66
2021/04/24 04:48:31;;;;;;;46.40;17.02;;;2.40;99.90;;;1.50;71.04;98245.72;5010853;28;20042;-66
2021/04/24 04:51:06;;;;;;;34.08;11.27;;;2.40;99.90;;;1.50;70.86;98244.00;5013092;28;20042;-66
2021/04/24 04:53:32;;;;;;;19.95;9.25;;;2.40;99.90;;;1.49;71.28;98244.88;5013447;28;20507;-66
2021/04/24 04:56:27;;;;;;;22.98;8.10;;;2.40;99.90;;;1.38;70.96;98242.25;4990333;28;20050;-66
2021/04/24 04:58:53;;;;;;;18.52;7.15;;;2.40;99.90;;;1.42;71.52;98243.13;4992148;28;20431;-66
2021/04/24 05:01:20;;;;;;;16.13;7.55;;;2.30;99.90;;;1.55;71.61;98242.34;5011081;28;20045;-66
2021/04/24 05:03:47;;;;;;;21.02;7.18;;;2.40;99.90;;;1.62;70.87;98241.53;4985656;28;20062;-66
2021/04/24 05:06:14;;;;;;;17.05;6.70;;;2.50;99.90;;;1.72;71.03;98231.31;5011888;28;20053;-65
2021/04/24 05:08:41;;;;;;;15.50;8.00;;;2.60;99.90;;;1.84;70.76;98229.63;5008087;28;20139;-65
2021/04/24 05:11:07;;;;;;;20.55;7.68;;;2.70;99.90;;;1.92;70.18;98231.38;5013179;28;20042;-65
2021/04/24 05:13:34;;;;;;;19.05;7.95;;;2.80;99.90;;;1.96;70.29;98233.94;4996079;28;20053;-66
2021/04/24 05:16:01;;;;;;;15.55;7.93;;;2.90;99.90;;;2.01;70.16;98237.38;4984358;28;20050;-66
2021/04/24 05:18:28;;;;;;;23.77;9.35;;;2.90;99.90;;;1.97;70.67;98232.22;5014250;28;20458;-66
2021/04/24 05:21:14;;;;;;;20.63;8.18;;;2.90;99.90;;;2.03;70.71;98239.91;4993293;28;20065;-66
2021/04/24 05:24:04;;;;;;;15.10;7.85;;;3.00;99.90;;;2.06;71.01;98238.22;5012903;28;20046;-66
2021/04/24 05:26:49;;;;;;;17.15;6.13;;;3.00;99.90;;;2.14;70.62;98229.69;5012345;28;20514;-66
2021/04/24 05:29:16;;;;;;;17.92;6.78;;;3.10;99.90;;;2.25;70.46;98243.38;5013967;28;20799;-66
2021/04/24 05:31:44;;;;;;;13.88;6.05;;;3.20;99.90;;;2.47;69.82;98229.72;5015804;28;20049;-66
2021/04/24 05:34:10;;;;;;;14.15;6.38;;;3.40;99.90;;;2.77;68.61;98235.69;5015293;28;20184;-66
2021/04/24 05:36:37;;;;;;;13.73;7.22;;;3.60;99.90;;;2.99;68.00;98233.09;5020927;28;21786;-66
2021/04/24 05:39:05;;;;;;;17.02;6.43;;;3.80;99.90;;;3.20;67.68;98234.78;5015002;28;20052;-66
2021/04/24 05:41:49;;;;;;;17.00;7.18;;;4.10;99.90;;;3.50;66.49;98234.66;4999806;28;20053;-65
2021/04/24 05:44:16;;;;;;;15.90;6.53;;;4.40;99.90;;;3.65;66.68;98236.31;5013805;28;20042;-65
2021/04/24 05:47:01;;;;;;;19.45;6.40;;;4.60;99.90;;;3.86;65.61;98237.94;5011513;28;20064;-65
2021/04/24 05:49:48;;;;;;;20.83;6.38;;;4.80;99.90;;;4.21;64.41;98226.56;5002798;28;20096;-65
2021/04/24 05:52:37;;;;;;;20.35;6.95;;;5.10;99.90;;;4.39;64.12;98231.59;5006050;28;20156;-65
2021/04/24 05:55:23;;;;;;;16.80;6.55;;;5.30;99.90;;;4.66;63.07;98224.53;5014471;28;20045;-65
2021/04/24 05:58:10;;;;;;;15.88;6.53;;;5.50;99.90;;;4.88;62.31;98229.47;5012009;28;20053;-66
2021/04/24 06:00:57;;;;;;;15.20;6.93;;;5.80;99.90;;;5.09;61.86;98239.56;5013238;28;20061;-65
2021/04/24 06:03:44;;;;;;;17.55;6.25;;;6.00;99.90;;;5.28;61.07;98232.50;4999631;28;20609;-65
2021/04/24 06:06:32;;;;;;;15.25;6.18;;;6.20;99.90;;;5.41;60.48;98233.22;5031292;28;20046;-66
2021/04/24 06:09:15;;;;;;;15.73;6.28;;;6.40;99.90;;;5.66;60.02;98236.34;5012115;28;20473;-65
2021/04/24 06:11:41;;;;;;;16.60;6.60;;;6.60;99.90;;;5.84;59.40;98230.97;5017193;28;20053;-66
2021/04/24 06:14:08;;;;;;;16.23;6.43;;;6.70;99.90;;;5.95;59.42;98232.56;5017314;28;20042;-65
2021/04/24 06:16:35;;;;;;;17.85;7.15;;;6.90;99.90;;;6.05;58.72;98229.84;5019609;28;20053;-65
2021/04/24 06:19:02;;;;;;;15.27;6.88;;;7.00;99.90;;;6.16;57.84;98231.41;4988419;28;20095;-65
2021/04/24 06:21:28;;;;;;;19.20;6.95;;;7.10;99.90;;;6.31;57.63;98232.94;5001454;28;20463;-66
2021/04/24 06:23:56;;;;;;;14.10;6.63;;;7.20;99.90;;;6.42;57.43;98225.88;4990440;28;21527;-65
2021/04/24 06:26:22;;;;;;;13.70;6.70;;;7.40;99.90;;;6.63;57.03;98235.84;4988190;28;20140;-65
2021/04/24 06:28:49;;;;;;;19.27;6.90;;;7.60;99.90;;;6.71;56.59;98228.00;5005087;28;20359;-66
2021/04/24 06:31:16;;;;;;;14.35;7.00;;;7.70;99.90;;;6.76;56.52;98231.34;5006478;28;20100;-65
2021/04/24 06:33:42;;;;;;;18.30;7.65;;;7.90;99.90;;;6.93;55.87;98230.19;4989705;28;20053;-65
2021/04/24 06:36:09;;;;;;;16.23;7.35;;;8.00;99.90;;;7.13;54.98;98241.88;5018414;28;20131;-65
2021/04/24 06:38:36;;;;;;;17.08;7.63;;;8.10;99.90;;;7.24;54.85;98228.78;5017133;28;20050;-65
2021/04/24 06:41:04;;;;;;;14.57;7.57;;;8.20;99.90;;;7.40;54.52;98231.06;5019820;28;20099;-65
2021/04/24 06:43:30;;;;;;;19.00;7.57;;;8.20;99.90;;;7.47;54.56;98223.16;5003116;28;20041;-65
2021/04/24 06:46:03;;;;;;;18.00;7.82;;;8.30;99.90;;;7.60;54.12;98221.19;5005392;28;20053;-65
2021/04/24 06:48:29;;;;;;;15.75;7.30;;;8.50;99.90;;;7.70;53.66;98220.09;5030713;28;20056;-65
2021/04/24 06:50:58;;;;;;;20.90;8.30;;;8.50;99.90;;;7.63;52.45;98228.88;5017423;28;20061;-65
2021/04/24 06:53:26;;;;;;;19.10;8.05;;;8.50;99.90;;;7.59;52.65;98228.97;5001994;28;20050;-65
2021/04/24 06:55:54;;;;;;;20.58;7.35;;;8.50;99.90;;;7.60;52.89;98221.19;4995765;28;20347;-65
2021/04/24 06:58:25;;;;;;;21.48;8.13;;;8.50;99.90;;;7.75;53.15;98225.19;5002112;28;20152;-67
2021/04/24 07:00:55;;;;;;;16.83;7.97;;;8.60;99.90;;;7.89;52.69;98230.94;4986401;28;20057;-66
2021/04/24 07:03:25;;;;;;;15.43;7.20;;;8.70;99.90;;;7.94;53.12;98223.06;5017298;28;20065;-65
2021/04/24 07:05:52;;;;;;;17.38;7.47;;;8.80;99.90;;;7.94;52.40;98225.66;5020531;28;20041;-65
2021/04/24 07:08:19;;;;;;;15.80;7.60;;;9.00;99.90;;;7.85;52.56;98221.53;5005163;28;20051;-65
2021/04/24 07:10:46;;;;;;;15.23;7.45;;;9.00;99.90;;;7.85;52.10;98220.69;5018861;28;20056;-66
2021/04/24 07:13:13;;;;;;;16.98;7.65;;;8.90;99.90;;;7.94;52.54;98231.66;5000747;28;20042;-65
2021/04/24 07:15:40;;;;;;;21.13;7.70;;;9.00;99.90;;;8.20;52.15;98225.06;5014635;28;20475;-66
2021/04/24 07:18:06;;;;;;;18.77;7.75;;;9.10;99.90;;;8.13;51.93;98223.50;5015911;28;20374;-66
2021/04/24 07:20:33;;;;;;;17.48;7.70;;;9.10;99.90;;;8.21;52.12;98229.38;4978116;28;20081;-66
2021/04/24 07:23:00;;;;;;;20.33;7.82;;;9.20;99.90;;;8.40;52.15;98219.47;5018218;28;20037;-66
2021/04/24 07:25:26;;;;;;;18.27;8.55;;;9.30;99.90;;;8.54;51.52;98226.91;5010113;28;20054;-66
2021/04/24 07:27:53;;;;;;;19.67;7.50;;;9.30;99.90;;;8.58;51.00;98220.78;5016129;28;20108;-65
2021/04/24 07:30:21;;;;;;;15.00;7.40;;;9.40;99.90;;;8.59;50.90;98220.72;5013043;28;20034;-66
2021/04/24 07:32:47;;;;;;;20.35;8.02;;;9.60;99.90;;;8.98;50.56;98210.25;5012970;28;20050;-65
2021/04/24 07:35:14;;;;;;;17.45;7.63;;;9.80;99.90;;;8.90;50.37;98217.38;4996920;28;20138;-65
2021/04/24 07:37:41;;;;;;;15.48;6.88;;;9.80;99.90;;;9.06;50.04;98220.41;5005923;28;20505;-66
2021/04/24 07:40:09;;;;;;;15.57;6.47;;;9.90;99.90;;;9.11;49.62;98215.13;5004093;28;20053;-66
2021/04/24 07:42:36;;;;;;;15.30;8.13;;;10.10;99.90;;;9.11;49.06;98213.38;5013482;28;20056;-65
2021/04/24 07:45:05;;;;;;;24.27;8.10;;;10.00;99.90;;;9.05;49.69;98218.72;4999029;28;20192;-66
2021/04/24 07:47:32;;;;;;;15.48;6.65;;;10.00;99.90;;;9.15;49.30;98212.41;4982005;28;20077;-65
2021/04/24 07:49:58;;;;;;;15.05;7.07;;;10.20;99.90;;;9.29;49.19;98219.81;4992642;28;20068;-65
2021/04/24 07:52:25;;;;;;;18.70;7.47;;;10.40;99.90;;;9.33;49.06;98220.59;5015603;28;20591;-66
2021/04/24 07:54:52;;;;;;;13.82;6.75;;;10.60;99.90;;;9.57;48.41;98214.69;4996246;28;20049;-66
2021/04/24 07:57:18;;;;;;;18.05;6.57;;;10.70;99.90;;;9.76;48.17;98211.56;5015692;28;20048;-65
2021/04/24 07:59:45;;;;;;;18.05;7.07;;;11.00;99.90;;;9.87;47.78;98219.03;5022219;28;20045;-65
2021/04/24 08:02:14;;;;;;;13.40;6.95;;;11.40;99.90;;;9.98;47.34;98214.41;5026476;28;20041;-66
2021/04/24 08:04:42;;;;;;;17.05;6.32;;;11.70;99.90;;;10.27;47.15;98208.31;5024642;28;20060;-66
2021/04/24 08:07:10;;;;;;;12.52;6.70;;;11.90;99.90;;;10.55;46.87;98210.91;5010366;28;20141;-66
2021/04/24 08:09:39;;;;;;;15.55;7.07;;;12.00;99.90;;;11.17;45.72;98214.06;5008529;28;20056;-66
2021/04/24 08:12:12;;;;;;;18.08;6.57;;;12.40;99.90;;;11.16;45.29;98210.59;5029111;28;20147;-66
2021/04/24 08:14:39;;;;;;;16.55;7.78;;;12.70;99.90;;;11.72;43.91;98210.34;5030607;28;20133;-66
2021/04/24 08:17:05;;;;;;;14.00;6.60;;;12.90;99.90;;;11.82;42.74;98208.22;5024688;28;20052;-67
2021/04/24 08:19:32;;;;;;;13.10;6.50;;;13.00;99.90;;;12.51;41.37;98204.72;5025268;28;20045;-67
2021/04/24 08:21:59;;;;;;;11.23;6.03;;;13.40;99.90;;;12.97;40.76;98205.44;5008246;28;20458;-67
2021/04/24 08:24:26;;;;;;;12.75;6.50;;;13.80;99.50;;;13.31;39.94;98199.63;5019890;28;20053;-67
2021/04/24 08:26:53;;;;;;;18.73;6.88;;;14.10;98.80;;;14.02;39.98;98201.69;5007024;28;20057;-65
2021/04/24 08:29:20;;;;;;;10.23;6.30;;;14.40;99.60;;;13.57;40.01;98200.25;5020850;28;20143;-65
2021/04/24 08:31:47;;;;;;;11.48;6.80;;;14.60;97.90;;;13.89;39.77;98198.81;5010333;28;20037;-64
2021/04/24 08:34:14;;;;;;;13.10;6.22;;;15.10;97.20;;;14.16;38.42;98195.81;5027534;28;20053;-67
2021/04/24 08:36:41;;;;;;;12.27;5.95;;;15.30;95.30;;;14.47;37.66;98189.13;5008557;28;20136;-65
2021/04/24 08:39:08;;;;;;;16.30;7.13;;;15.40;94.20;;;13.89;38.05;98185.75;5010216;28;20046;-65
2021/04/24 08:41:35;;;;;;;15.88;7.07;;;14.90;94.00;;;13.53;38.64;98181.28;5027981;28;20048;-66
2021/04/24 08:44:02;;;;;;;10.85;5.85;;;14.60;94.10;;;13.61;38.44;98186.16;5026628;28;20104;-66
2021/04/24 08:46:51;;;;;;;12.07;5.97;;;15.00;93.50;;;13.70;37.67;98180.53;5013796;28;20139;-67
2021/04/24 08:49:20;;;;;;;13.75;6.70;;;14.60;93.20;;;13.45;38.53;98187.75;5025733;28;20045;-66
2021/04/24 08:51:51;;;;;;;10.65;5.45;;;14.70;93.30;;;13.64;38.66;98183.44;4992235;28;20075;-65
2021/04/24 08:54:26;;;;;;;11.52;6.18;;;14.60;93.80;;;13.96;37.90;98181.94;5012332;28;20053;-66
2021/04/24 08:56:53;;;;;;;10.98;5.68;;;15.00;93.20;;;14.84;37.05;98180.34;5026778;28;20041;-66
2021/04/24 08:59:19;;;;;;;12.68;5.47;;;15.70;92.80;;;15.75;35.45;98176.50;5009047;28;20064;-65
2021/04/24 09:01:46;;;;;;;12.27;5.05;;;16.40;91.50;;;15.12;34.66;98185.03;5027163;28;20056;-65
2021/04/24 09:04:12;;;;;;;12.48;5.40;;;16.30;85.10;;;15.26;34.81;98182.53;5027240;28;20041;-65
2021/04/24 09:06:39;;;;;;;9.93;5.32;;;16.40;85.50;;;15.48;35.30;98187.47;5026382;28;20398;-65
2021/04/24 09:09:08;;;;;;;12.60;5.47;;;16.40;86.90;;;15.20;34.51;98187.25;4998550;28;20053;-65
2021/04/24 09:11:45;;;;;;;9.43;4.75;;;16.50;82.40;;;15.83;34.41;98176.94;5008230;28;20506;-66
2021/04/24 09:14:16;;;;;;;9.80;4.97;;;16.90;82.80;;;15.50;32.44;98176.09;5010067;28;20052;-65
2021/04/24 09:16:43;;;;;;;10.98;4.78;;;17.20;75.60;;;15.59;32.67;98175.63;5026051;28;20390;-66
2021/04/24 09:19:35;;;;;;;9.32;4.70;;;16.70;75.10;;;15.76;31.55;98172.09;5010323;28;20045;-66
2021/04/24 09:22:22;;;;;;;10.88;4.32;;;16.90;72.40;;;15.53;31.87;98168.94;5022520;28;20054;-65
2021/04/24 09:25:09;;;;;;;11.02;4.57;;;16.70;70.60;;;15.79;32.79;98171.97;5010413;28;20046;-65
2021/04/24 09:27:46;;;;;;;8.57;5.20;;;17.20;72.10;;;15.73;32.17;98162.66;5014728;28;20056;-67
2021/04/24 09:30:23;;;;;;;10.60;4.72;;;16.90;71.00;;;15.81;32.13;98168.34;5009672;28;20056;-65
2021/04/24 09:32:50;;;;;;;12.75;5.30;;;17.10;70.80;;;15.43;32.74;98159.88;5025076;28;20483;-65
2021/04/24 09:35:21;;;;;;;11.55;4.70;;;16.70;71.00;;;16.13;33.30;98154.41;5024454;28;20059;-65
2021/04/24 09:38:08;;;;;;;10.20;4.88;;;17.20;73.90;;;16.30;31.24;98156.91;5026658;28;20074;-65
2021/04/24 09:40:36;;;;;;;11.23;4.85;;;17.80;68.00;;;16.07;30.80;98158.19;4993977;28;20124;-65
2021/04/24 09:43:08;;;;;;;11.05;4.63;;;17.30;67.20;;;15.84;30.80;98149.81;5018734;28;20049;-65
2021/04/24 09:45:40;;;;;;;9.27;4.75;;;17.20;65.30;;;15.73;31.97;98149.56;5032252;28;20046;-65
2021/04/24 09:48:25;;;;;;;9.52;4.53;;;17.20;67.30;;;15.94;32.26;98155.41;5014289;28;20041;-65
2021/04/24 09:51:19;;;;;;;11.73;5.45;;;17.40;67.40;;;15.95;31.50;98154.47;5025167;28;20124;-66
2021/04/24 09:54:08;;;;;;;10.65;4.55;;;17.20;66.10;;;17.04;31.31;98140.41;5031558;28;20049;-65
2021/04/24 09:56:35;;;;;;;8.50;4.30;;;18.10;67.40;;;17.29;29.93;98133.69;5014585;28;20053;-66
2021/04/24 09:59:07;;;;;;;11.05;4.55;;;18.50;63.60;;;16.94;29.98;98136.63;5014162;28;20146;-65
2021/04/24 10:01:38;;;;;;;9.20;4.25;;;18.40;62.50;;;17.52;30.32;98133.09;5013310;28;20045;-65
2021/04/24 10:04:22;;;;;;;14.18;5.03;;;18.90;63.80;;;16.99;29.71;98134.59;5017373;28;20129;-65
2021/04/24 10:06:53;;;;;;;10.02;4.72;;;18.40;60.60;;;16.80;30.65;98132.19;5013552;28;20136;-66
2021/04/24 10:09:30;;;;;;;15.18;5.03;;;18.60;61.20;;;17.30;29.57;98122.22;5028890;28;20042;-65
2021/04/24 10:11:59;;;;;;;10.30;4.90;;;19.40;59.40;;;17.64;28.58;98117.53;5023362;28;20554;-66
2021/04/24 10:14:40;;;;;;;11.48;5.03;;;19.80;57.60;;;17.77;28.40;98118.44;5031709;28;20045;-66
2021/04/24 10:17:27;;;;;;;12.02;5.07;;;19.90;56.30;;;17.54;28.76;98102.34;5028755;28;20045;-65
2021/04/24 10:20:14;;;;;;;11.40;5.65;;;19.70;56.10;;;16.96;29.40;98112.94;5031279;28;20514;-65
2021/04/24 10:23:03;;;;;;;10.20;5.18;;;18.50;56.80;;;17.07;29.79;98110.50;5004849;28;20116;-66
2021/04/24 10:25:51;;;;;;;13.32;5.47;;;18.70;58.20;;;17.35;29.82;98110.50;5031688;28;20045;-65
2021/04/24 10:28:38;;;;;;;10.27;4.57;;;18.80;58.30;;;18.14;28.79;98113.47;5021024;28;20041;-66
2021/04/24 10:31:09;;;;;;;8.80;4.93;;;19.90;56.60;;;18.23;27.97;98104.16;5011833;28;20045;-66
2021/04/24 10:33:37;;;;;;;10.55;5.25;;;20.20;54.70;;;18.17;28.24;98103.59;5013531;28;20045;-66
2021/04/24 10:36:05;;;;;;;9.80;4.63;;;20.20;54.60;;;18.05;28.30;98107.03;5011901;28;20037;-66
2021/04/24 10:38:54;;;;;;;10.93;5.18;;;19.80;54.30;;;18.28;28.40;98109.97;5013850;28;20045;-65
2021/04/24 10:41:59;;;;;;;9.93;4.80;;;20.50;54.00;;;17.29;28.59;98102.19;5012577;28;20038;-66